Time;durP1;ratioP1;P1;durP2;ratioP2;P2;SDS_P1;SDS_P2;PMS_P1;PMS_P2;Temp;Humidity;BMP_temperature;BMP_pressure;BME280_temperature;BME280_humidity;BME280_pressure;Samples;Min_cycle;Max_cycle;Signal;HPM_P1;HPM_P2
2021/06/18 00:01:15;;;;;;;5.70;2.75;;;25.10;53.10;;;;;;4979068;28;20027;-67
2021/06/18 00:03:41;;;;;;;7.75;3.30;;;25.00;53.10;;;;;;4980913;28;20058;-67
2021/06/18 00:06:06;;;;;;;3.72;2.85;;;25.00;53.30;;;;;;4987934;28;20394;-67
2021/06/18 00:08:32;;;;;;;2.88;2.67;;;24.90;53.30;;;;;;4976916;28;20114;-67
2021/06/18 00:10:58;;;;;;;4.45;2.45;;;24.90;53.40;;;;;;4980416;28;20394;-67
2021/06/18 00:13:23;;;;;;;8.10;3.13;;;24.80;53.40;;;;;;4980841;28;20038;-67
2021/06/18 00:15:49;;;;;;;3.47;2.58;;;24.80;53.50;;;;;;4981305;28;20106;-67
2021/06/18 00:18:14;;;;;;;7.38;3.35;;;24.80;53.80;;;;;;4978916;28;20489;-67
2021/06/18 00:20:40;;;;;;;3.33;3.03;;;24.80;53.90;;;;;;4980038;28;20035;-67
2021/06/18 00:23:05;;;;;;;4.65;2.97;;;24.80;53.60;;;;;;4980543;28;20029;-67
2021/06/18 00:25:31;;;;;;;6.28;4.00;;;24.80;54.20;;;;;;4980589;28;20030;-67
2021/06/18 00:27:56;;;;;;;5.97;3.90;;;24.80;54.10;;;;;;4979716;28;20088;-67
2021/06/18 00:30:23;;;;;;;9.60;7.63;;;24.70;54.30;;;;;;4980372;28;20498;-67
2021/06/18 00:32:49;;;;;;;14.10;11.40;;;24.70;54.00;;;;;;4980946;28;20101;-67
2021/06/18 00:35:14;;;;;;;7.40;6.35;;;24.70;54.10;;;;;;4980480;28;20563;-67
2021/06/18 00:37:40;;;;;;;13.40;10.68;;;24.60;54.00;;;;;;4975639;28;20027;-67
2021/06/18 00:40:07;;;;;;;8.32;5.53;;;24.60;54.20;;;;;;4980033;28;20513;-67
2021/06/18 00:42:33;;;;;;;16.90;14.02;;;24.60;54.80;;;;;;4980239;28;20038;-67
2021/06/18 00:44:58;;;;;;;7.70;3.72;;;24.50;54.30;;;;;;4980209;28;20039;-67
2021/06/18 00:47:25;;;;;;;8.40;6.07;;;24.50;55.20;;;;;;4985634;28;20031;-67
2021/06/18 00:49:51;;;;;;;7.00;5.28;;;24.50;55.20;;;;;;4980099;28;20027;-67
2021/06/18 00:52:17;;;;;;;6.03;4.47;;;24.40;55.70;;;;;;4980659;28;20065;-67
2021/06/18 00:54:44;;;;;;;4.70;4.20;;;24.40;56.20;;;;;;4979103;28;20030;-67
2021/06/18 00:57:10;;;;;;;5.43;4.75;;;24.30;56.50;;;;;;4975955;28;20022;-67
2021/06/18 00:59:35;;;;;;;6.95;4.78;;;24.20;56.50;;;;;;4979392;28;20109;-66
2021/06/18 01:02:01;;;;;;;6.18;4.80;;;24.20;56.90;;;;;;4979269;28;20034;-67
2021/06/18 01:04:28;;;;;;;6.35;5.10;;;24.10;57.00;;;;;;4980596;28;20034;-67
2021/06/18 01:07:05;;;;;;;5.63;4.80;;;24.10;56.90;;;;;;4976822;28;20034;-67
2021/06/18 01:09:42;;;;;;;7.82;6.50;;;24.00;57.40;;;;;;4979380;28;20037;-67
2021/06/18 01:12:17;;;;;;;5.68;3.92;;;23.80;57.20;;;;;;4978354;28;20027;-67
2021/06/18 01:15:06;;;;;;;6.43;5.25;;;23.80;57.60;;;;;;4980500;28;20033;-67
2021/06/18 01:17:49;;;;;;;6.05;5.07;;;23.80;57.50;;;;;;4980101;28;20062;-67
2021/06/18 01:20:56;;;;;;;6.88;3.95;;;23.80;57.50;;;;;;4978908;28;20062;-66
2021/06/18 01:23:39;;;;;;;5.80;3.72;;;23.70;57.70;;;;;;4978197;28;20073;-66
2021/06/18 01:26:23;;;;;;;5.47;3.88;;;23.70;57.20;;;;;;4979821;28;21904;-67
2021/06/18 01:28:52;;;;;;;5.15;3.35;;;23.60;57.90;;;;;;4977980;28;20076;-67
2021/06/18 01:31:23;;;;;;;4.07;3.40;;;23.60;57.40;;;;;;4980407;28;20397;-66
2021/06/18 01:33:58;;;;;;;4.80;4.03;;;23.60;57.90;;;;;;4979461;28;20053;-67
2021/06/18 01:36:25;;;;;;;3.70;3.15;;;23.50;58.00;;;;;;4978459;28;20097;-67
2021/06/18 01:38:53;;;;;;;6.85;3.63;;;23.50;58.50;;;;;;4979112;28;20051;-67
2021/06/18 01:41:22;;;;;;;4.60;2.78;;;23.50;58.20;;;;;;4979953;28;20035;-67
2021/06/18 01:43:50;;;;;;;4.50;3.72;;;23.50;58.40;;;;;;4980496;28;20524;-67
2021/06/18 01:46:20;;;;;;;5.45;3.30;;;23.50;57.90;;;;;;4976888;28;20042;-67
2021/06/18 01:48:50;;;;;;;3.60;3.03;;;23.50;57.90;;;;;;4978147;28;20090;-67
2021/06/18 01:51:18;;;;;;;4.63;2.90;;;23.50;57.90;;;;;;4979751;28;20366;-66
2021/06/18 01:53:45;;;;;;;5.68;3.03;;;23.50;58.40;;;;;;4979302;28;20022;-67
2021/06/18 01:56:14;;;;;;;6.72;3.92;;;23.40;58.70;;;;;;4980112;28;20025;-67
2021/06/18 01:58:42;;;;;;;3.58;3.10;;;23.30;59.00;;;;;;4978659;28;20034;-67
2021/06/18 02:01:08;;;;;;;4.47;2.72;;;23.40;58.80;;;;;;4977964;28;20459;-66
2021/06/18 02:03:35;;;;;;;5.10;3.22;;;23.40;58.60;;;;;;4979681;28;20101;-67
2021/06/18 02:06:05;;;;;;;3.85;3.53;;;23.40;58.60;;;;;;4980385;28;20077;-67
2021/06/18 02:08:31;;;;;;;3.50;3.03;;;23.40;58.80;;;;;;4974275;28;20085;-66
2021/06/18 02:10:59;;;;;;;4.82;3.10;;;23.30;58.80;;;;;;4980808;28;20053;-66
2021/06/18 02:13:28;;;;;;;3.30;3.00;;;23.30;58.70;;;;;;4982827;28;20034;-67
2021/06/18 02:15:55;;;;;;;4.93;2.92;;;23.30;58.80;;;;;;4983345;28;20030;-67
2021/06/18 02:18:22;;;;;;;3.17;2.50;;;23.30;58.70;;;;;;4981007;28;20084;-66
2021/06/18 02:20:52;;;;;;;3.72;3.30;;;23.30;58.90;;;;;;4981866;28;20031;-66
2021/06/18 02:23:20;;;;;;;5.82;3.20;;;23.20;59.50;;;;;;4982004;28;20437;-66
2021/06/18 02:25:46;;;;;;;4.47;3.50;;;23.10;59.30;;;;;;4983220;28;20517;-66
2021/06/18 02:28:13;;;;;;;5.78;3.40;;;23.10;60.50;;;;;;4981525;28;20556;-66
2021/06/18 02:30:39;;;;;;;3.78;3.10;;;23.00;60.90;;;;;;4982488;28;20038;-67
2021/06/18 02:33:10;;;;;;;3.58;3.28;;;22.90;60.30;;;;;;4983077;28;20033;-66
2021/06/18 02:35:36;;;;;;;4.03;3.70;;;22.80;61.30;;;;;;4981213;28;20370;-66
2021/06/18 02:38:02;;;;;;;7.95;3.90;;;22.70;61.10;;;;;;4980417;28;20035;-66
2021/06/18 02:40:28;;;;;;;5.65;4.30;;;22.60;60.40;;;;;;4982648;28;20038;-66
2021/06/18 02:42:53;;;;;;;6.50;3.63;;;22.60;61.40;;;;;;4982836;28;20089;-66
2021/06/18 02:45:19;;;;;;;6.15;3.92;;;22.60;61.40;;;;;;4982397;28;20036;-67
2021/06/18 02:48:07;;;;;;;4.35;3.67;;;22.60;60.90;;;;;;4982200;28;20493;-66
2021/06/18 02:50:40;;;;;;;5.63;4.07;;;22.60;61.40;;;;;;4981601;28;20022;-66
2021/06/18 02:53:30;;;;;;;5.82;4.00;;;22.70;61.10;;;;;;4981486;28;20033;-66
2021/06/18 02:56:00;;;;;;;5.22;4.30;;;22.60;61.10;;;;;;4981462;28;20057;-66
2021/06/18 02:58:33;;;;;;;5.00;4.25;;;22.60;61.50;;;;;;4981735;28;20033;-66
2021/06/18 03:01:03;;;;;;;4.63;4.20;;;22.50;61.50;;;;;;4981312;28;20031;-66
2021/06/18 03:03:33;;;;;;;7.53;4.07;;;22.50;61.70;;;;;;4982273;28;20113;-67
2021/06/18 03:06:02;;;;;;;10.65;4.60;;;22.60;61.50;;;;;;4979349;28;20045;-66
2021/06/18 03:08:34;;;;;;;4.18;3.75;;;22.60;61.40;;;;;;4978616;28;20045;-66
2021/06/18 03:11:01;;;;;;;5.75;4.47;;;22.70;61.50;;;;;;4980701;28;20494;-67
2021/06/18 03:13:31;;;;;;;6.57;5.05;;;22.70;61.60;;;;;;4980779;28;20441;-67
2021/06/18 03:15:57;;;;;;;5.63;4.32;;;22.80;61.50;;;;;;4981003;28;20677;-66
2021/06/18 03:18:24;;;;;;;4.78;3.97;;;22.70;61.50;;;;;;4979400;28;20030;-67
2021/06/18 03:20:53;;;;;;;5.30;4.05;;;22.70;61.30;;;;;;4980471;28;20034;-66
2021/06/18 03:23:20;;;;;;;4.45;4.00;;;22.70;61.70;;;;;;4986672;28;20031;-66
2021/06/18 03:25:47;;;;;;;9.05;4.80;;;22.70;61.50;;;;;;4988559;28;20034;-66
2021/06/18 03:28:13;;;;;;;5.70;4.53;;;22.70;61.60;;;;;;4979586;28;20034;-67
2021/06/18 03:30:40;;;;;;;4.72;3.65;;;22.70;61.60;;;;;;4993553;28;20026;-66
2021/06/18 03:33:07;;;;;;;8.73;4.45;;;22.70;61.50;;;;;;4981913;28;20680;-66
2021/06/18 03:35:34;;;;;;;8.75;4.75;;;22.70;61.80;;;;;;4979392;28;20141;-67
2021/06/18 03:38:01;;;;;;;8.52;4.82;;;22.70;62.60;;;;;;4979970;28;20110;-66
2021/06/18 03:40:27;;;;;;;7.68;4.13;;;22.70;62.30;;;;;;4996327;28;20458;-66
2021/06/18 03:42:54;;;;;;;6.45;4.93;;;22.80;61.90;;;;;;4982063;28;20390;-67
2021/06/18 03:45:21;;;;;;;4.78;4.28;;;22.90;61.90;;;;;;4981710;28;20061;-67
2021/06/18 03:47:48;;;;;;;4.63;4.10;;;23.20;61.60;;;;;;4981211;28;20058;-67
2021/06/18 03:50:17;;;;;;;7.85;4.50;;;23.60;61.10;;;;;;4980863;28;20034;-67
2021/06/18 03:52:43;;;;;;;5.63;4.55;;;23.90;60.80;;;;;;4981927;28;20069;-67
2021/06/18 03:55:09;;;;;;;5.78;4.50;;;24.20;60.70;;;;;;4979093;28;20018;-66
2021/06/18 03:57:36;;;;;;;5.07;3.78;;;24.50;60.10;;;;;;4979669;28;20613;-67
2021/06/18 04:00:05;;;;;;;6.45;4.32;;;24.90;59.40;;;;;;4979443;28;20061;-67
2021/06/18 04:02:31;;;;;;;10.52;4.47;;;25.10;58.80;;;;;;4982286;28;20096;-67
2021/06/18 04:04:58;;;;;;;8.18;4.53;;;25.30;58.30;;;;;;4986424;28;20496;-66
2021/06/18 04:07:24;;;;;;;6.95;4.28;;;25.40;58.00;;;;;;4980506;28;20030;-67
2021/06/18 04:09:50;;;;;;;6.63;4.40;;;25.60;57.70;;;;;;4978064;28;20113;-66
2021/06/18 04:12:17;;;;;;;5.05;4.55;;;25.80;57.30;;;;;;4974842;28;20039;-67
2021/06/18 04:14:43;;;;;;;7.45;4.65;;;26.10;56.70;;;;;;4979956;28;20999;-67
2021/06/18 04:17:10;;;;;;;10.82;4.57;;;26.30;56.20;;;;;;4979903;28;20106;-66
2021/06/18 04:19:37;;;;;;;23.15;9.18;;;26.50;55.90;;;;;;4978312;28;20026;-67
2021/06/18 04:22:05;;;;;;;9.73;5.35;;;26.80;57.50;;;;;;4979915;28;20030;-67
2021/06/18 04:24:31;;;;;;;7.45;4.88;;;27.00;56.50;;;;;;4984179;28;20081;-67
2021/06/18 04:26:57;;;;;;;7.88;4.65;;;27.30;56.50;;;;;;4980100;28;20041;-67
2021/06/18 04:29:24;;;;;;;6.47;4.40;;;27.40;55.80;;;;;;4978865;28;20034;-67
2021/06/18 04:31:50;;;;;;;8.45;5.13;;;27.60;56.10;;;;;;4985792;28;20089;-67
2021/06/18 04:34:15;;;;;;;7.15;4.70;;;27.90;55.50;;;;;;4980120;28;20031;-66
2021/06/18 04:36:41;;;;;;;8.55;4.65;;;28.10;54.90;;;;;;4979944;28;20034;-67
2021/06/18 04:39:08;;;;;;;11.43;4.18;;;28.20;54.20;;;;;;4979971;28;20116;-67
2021/06/18 04:41:34;;;;;;;8.15;4.10;;;28.40;53.70;;;;;;4980261;28;20031;-67
2021/06/18 04:44:00;;;;;;;10.45;4.32;;;28.50;53.10;;;;;;4980875;28;20030;-67
2021/06/18 04:46:25;;;;;;;18.42;4.93;;;28.60;53.10;;;;;;4978439;28;20096;-67
2021/06/18 04:48:51;;;;;;;10.52;4.75;;;28.70;52.10;;;;;;4979686;28;20038;-67
2021/06/18 04:51:17;;;;;;;7.97;4.53;;;28.70;51.90;;;;;;4979552;28;20479;-67
2021/06/18 04:53:44;;;;;;;9.90;4.15;;;28.80;51.90;;;;;;4980710;28;20030;-67
2021/06/18 04:56:10;;;;;;;8.60;4.70;;;29.00;51.80;;;;;;4979745;28;20034;-67
2021/06/18 04:58:36;;;;;;;9.55;4.30;;;29.20;51.90;;;;;;4977542;28;20031;-67
2021/06/18 05:01:02;;;;;;;7.35;4.47;;;29.40;51.60;;;;;;4979946;28;20031;-68
2021/06/18 05:03:27;;;;;;;4.57;4.15;;;29.70;51.40;;;;;;4979724;28;20045;-67
2021/06/18 05:05:53;;;;;;;6.20;4.45;;;30.00;51.50;;;;;;4974169;28;20486;-68
2021/06/18 05:08:18;;;;;;;14.60;4.68;;;30.20;51.10;;;;;;4976815;28;20031;-68
2021/06/18 05:10:44;;;;;;;6.68;4.43;;;30.40;50.40;;;;;;4976788;28;20027;-68
2021/06/18 05:13:09;;;;;;;11.68;4.85;;;30.60;50.10;;;;;;4977425;28;20030;-68
2021/06/18 05:15:35;;;;;;;10.35;4.95;;;30.70;49.60;;;;;;4978811;28;20513;-68
2021/06/18 05:18:01;;;;;;;9.13;5.05;;;30.80;49.50;;;;;;4978291;28;20106;-68
2021/06/18 05:20:26;;;;;;;6.18;5.32;;;31.00;49.30;;;;;;4978879;28;20061;-68
2021/06/18 05:22:52;;;;;;;8.45;5.03;;;31.00;49.20;;;;;;4978309;28;20484;-68
2021/06/18 05:25:18;;;;;;;6.72;5.88;;;31.10;48.80;;;;;;4979923;28;20105;-68
2021/06/18 05:27:44;;;;;;;9.27;4.95;;;31.10;48.40;;;;;;4979242;28;20022;-68
2021/06/18 05:30:10;;;;;;;14.38;10.02;;;31.20;48.70;;;;;;4979297;28;20039;-67
2021/06/18 05:32:36;;;;;;;12.73;6.88;;;31.30;48.80;;;;;;4979516;28;20516;-67
2021/06/18 05:35:03;;;;;;;8.48;5.63;;;31.30;48.20;;;;;;4980135;28;20035;-67
2021/06/18 05:37:28;;;;;;;6.78;4.55;;;31.40;48.40;;;;;;4978773;28;20399;-68
2021/06/18 05:39:54;;;;;;;9.32;4.97;;;31.40;48.30;;;;;;4978733;28;20113;-68
2021/06/18 05:42:19;;;;;;;10.05;5.38;;;31.40;48.40;;;;;;4979963;28;20027;-68
2021/06/18 05:44:45;;;;;;;13.82;5.60;;;31.30;48.50;;;;;;4978874;28;20027;-68
2021/06/18 05:47:10;;;;;;;10.00;5.72;;;31.20;48.70;;;;;;4981971;28;20027;-68
2021/06/18 05:49:36;;;;;;;12.90;6.20;;;31.20;48.50;;;;;;4978753;28;20031;-67
2021/06/18 05:52:01;;;;;;;16.27;7.28;;;31.10;49.10;;;;;;4983322;28;20061;-67
2021/06/18 05:54:27;;;;;;;52.53;8.43;;;31.00;49.00;;;;;;4983908;28;20031;-67
2021/06/18 05:56:53;;;;;;;13.07;6.20;;;30.90;49.10;;;;;;4981467;28;20503;-67
2021/06/18 05:59:19;;;;;;;45.75;24.30;;;30.90;49.30;;;;;;4988509;28;20393;-67
2021/06/18 06:01:45;;;;;;;16.95;11.25;;;30.90;49.20;;;;;;4980529;28;20050;-67
2021/06/18 06:04:10;;;;;;;18.52;8.25;;;30.90;48.90;;;;;;4982178;28;20494;-68
2021/06/18 06:06:36;;;;;;;14.40;8.23;;;30.80;49.60;;;;;;4977759;28;20034;-70
2021/06/18 06:09:02;;;;;;;22.88;6.60;;;30.70;49.60;;;;;;4981302;28;20081;-70
2021/06/18 06:11:30;;;;;;;21.23;8.68;;;30.70;49.90;;;;;;4982500;28;20094;-70
2021/06/18 06:14:00;;;;;;;27.65;12.32;;;30.50;50.50;;;;;;4981772;28;20119;-70
2021/06/18 06:16:26;;;;;;;20.90;9.50;;;30.50;50.30;;;;;;4982517;28;20026;-70
2021/06/18 06:18:52;;;;;;;13.95;8.25;;;30.50;50.30;;;;;;4980811;28;20033;-70
2021/06/18 06:21:18;;;;;;;14.75;8.18;;;30.60;49.90;;;;;;4981648;28;20406;-71
2021/06/18 06:23:44;;;;;;;26.85;8.30;;;30.50;49.80;;;;;;4982241;28;20023;-72
2021/06/18 06:26:10;;;;;;;9.20;5.70;;;30.50;49.80;;;;;;4982064;28;20494;-71
2021/06/18 06:28:36;;;;;;;9.50;6.75;;;30.40;49.70;;;;;;4982088;28;20096;-70
2021/06/18 06:31:05;;;;;;;7.57;6.22;;;30.30;49.50;;;;;;4981799;28;20027;-70
2021/06/18 06:33:30;;;;;;;16.55;5.43;;;30.20;49.60;;;;;;4980092;28;20541;-70
2021/06/18 06:35:56;;;;;;;12.38;5.72;;;30.10;50.30;;;;;;4981769;28;20105;-70
2021/06/18 06:38:22;;;;;;;10.88;6.18;;;30.10;50.30;;;;;;4980149;28;20418;-71
2021/06/18 06:40:48;;;;;;;8.18;6.03;;;30.10;50.40;;;;;;4981599;28;20029;-71
2021/06/18 06:43:14;;;;;;;12.32;5.93;;;30.40;49.90;;;;;;4981834;28;20033;-71
2021/06/18 06:45:40;;;;;;;8.30;5.15;;;30.30;49.40;;;;;;4982993;28;20049;-71
2021/06/18 06:48:06;;;;;;;13.38;5.13;;;30.10;49.80;;;;;;4980908;28;20394;-71
2021/06/18 06:50:31;;;;;;;11.02;6.45;;;30.10;49.60;;;;;;4980714;28;20054;-71
2021/06/18 06:52:57;;;;;;;11.88;5.10;;;29.90;49.90;;;;;;4987505;28;20073;-71
2021/06/18 06:55:23;;;;;;;8.07;5.07;;;29.90;50.00;;;;;;4981771;28;20032;-71
2021/06/18 06:57:50;;;;;;;6.15;5.28;;;29.90;50.00;;;;;;4980890;28;20038;-71
2021/06/18 07:00:16;;;;;;;7.28;4.72;;;29.90;49.90;;;;;;4981790;28;20490;-71
2021/06/18 07:02:43;;;;;;;9.15;4.95;;;30.00;50.10;;;;;;4981805;28;20045;-71
2021/06/18 07:05:09;;;;;;;7.55;4.25;;;30.10;49.50;;;;;;4981433;28;20082;-71
2021/06/18 07:07:36;;;;;;;27.95;7.30;;;30.20;49.50;;;;;;4980802;28;20034;-72
2021/06/18 07:10:05;;;;;;;40.80;8.63;;;30.10;49.70;;;;;;4987316;28;20091;-72
2021/06/18 07:12:31;;;;;;;26.25;7.20;;;30.20;49.90;;;;;;4981713;28;20030;-71
2021/06/18 07:14:56;;;;;;;82.78;11.13;;;30.30;50.00;;;;;;4980728;28;20502;-70
2021/06/18 07:17:25;;;;;;;65.75;10.02;;;30.30;50.20;;;;;;4980975;28;20545;-71
2021/06/18 07:19:53;;;;;;;73.65;12.02;;;30.40;50.40;;;;;;4980456;28;20118;-71
2021/06/18 07:22:21;;;;;;;37.35;8.48;;;30.60;50.50;;;;;;4979835;28;20100;-71
2021/06/18 07:24:47;;;;;;;54.00;7.90;;;30.90;50.20;;;;;;4981755;28;20573;-70
2021/06/18 07:27:13;;;;;;;43.40;7.75;;;30.90;50.20;;;;;;4980497;28;20114;-70
2021/06/18 07:29:40;;;;;;;18.35;5.78;;;30.90;50.00;;;;;;4980197;28;20019;-70
2021/06/18 07:32:07;;;;;;;20.15;8.35;;;30.90;50.00;;;;;;4979128;28;20034;-71
2021/06/18 07:34:33;;;;;;;16.55;5.65;;;31.00;50.00;;;;;;4980391;28;20034;-70
2021/06/18 07:36:58;;;;;;;13.48;6.07;;;31.10;49.80;;;;;;4979142;28;20022;-72
2021/06/18 07:39:24;;;;;;;13.07;4.75;;;31.10;49.80;;;;;;4980631;28;20558;-71
2021/06/18 07:41:49;;;;;;;7.35;4.00;;;31.10;49.90;;;;;;4981270;28;20057;-71
2021/06/18 07:44:15;;;;;;;6.63;3.75;;;31.20;49.60;;;;;;4981581;28;20110;-70
2021/06/18 07:46:41;;;;;;;13.18;5.20;;;31.20;49.30;;;;;;4981636;28;20116;-70
2021/06/18 07:49:06;;;;;;;15.52;5.68;;;31.30;49.20;;;;;;4978132;28;20060;-69
2021/06/18 07:51:32;;;;;;;5.22;4.38;;;31.30;48.90;;;;;;4979376;28;20312;-70
2021/06/18 07:53:57;;;;;;;7.53;4.28;;;31.40;48.70;;;;;;4981113;28;20508;-70
2021/06/18 07:56:24;;;;;;;6.07;3.80;;;31.40;48.80;;;;;;4980662;28;20508;-70
2021/06/18 07:58:51;;;;;;;10.50;5.80;;;31.70;49.10;;;;;;4980768;28;20025;-70
2021/06/18 08:01:17;;;;;;;12.00;4.85;;;31.80;48.90;;;;;;4979037;28;20041;-71
2021/06/18 08:03:42;;;;;;;9.38;5.63;;;32.00;48.90;;;;;;4985413;28;20121;-71
2021/06/18 08:06:08;;;;;;;16.42;6.47;;;32.30;48.70;;;;;;4979908;28;20026;-70
2021/06/18 08:08:33;;;;;;;21.92;6.80;;;32.40;48.60;;;;;;4979363;28;20034;-70
2021/06/18 08:10:59;;;;;;;42.22;8.15;;;32.40;48.50;;;;;;4980748;28;20041;-72
2021/06/18 08:13:24;;;;;;;50.20;10.57;;;32.30;48.90;;;;;;4977984;28;20033;-70
2021/06/18 08:15:50;;;;;;;66.32;9.55;;;32.40;48.70;;;;;;4980772;28;20022;-70
2021/06/18 08:18:15;;;;;;;25.45;7.18;;;32.50;48.60;;;;;;4978808;28;20166;-71
2021/06/18 08:20:42;;;;;;;56.92;10.05;;;32.40;48.50;;;;;;4979774;28;20481;-71
2021/06/18 08:23:08;;;;;;;10.20;6.25;;;32.40;48.90;;;;;;4978762;28;20088;-71
2021/06/18 08:25:33;;;;;;;12.80;6.60;;;32.30;47.10;;;;;;4979693;28;20438;-71
2021/06/18 08:27:59;;;;;;;12.30;6.85;;;32.10;47.60;;;;;;4979691;28;20030;-71
2021/06/18 08:30:24;;;;;;;10.77;6.80;;;32.20;48.10;;;;;;4980476;28;20022;-71
2021/06/18 08:32:51;;;;;;;16.75;7.15;;;32.40;48.10;;;;;;4980815;28;20031;-71
2021/06/18 08:35:17;;;;;;;8.95;6.22;;;32.30;47.50;;;;;;4980181;28;20057;-70
2021/06/18 08:37:42;;;;;;;9.57;6.45;;;32.10;48.40;;;;;;4980224;28;20498;-71
2021/06/18 08:40:09;;;;;;;9.55;6.03;;;32.20;48.50;;;;;;4979821;28;20038;-71
2021/06/18 08:42:35;;;;;;;11.75;4.97;;;32.30;48.60;;;;;;4979614;28;20065;-71
2021/06/18 08:45:00;;;;;;;8.85;5.30;;;32.40;48.40;;;;;;4982637;28;20034;-71
2021/06/18 08:47:26;;;;;;;6.32;4.30;;;32.60;48.00;;;;;;4979823;28;20060;-71
2021/06/18 08:49:52;;;;;;;11.27;4.05;;;32.50;47.20;;;;;;4981754;28;20078;-70
2021/06/18 08:52:18;;;;;;;6.82;5.40;;;32.30;47.10;;;;;;4980358;28;20145;-71
2021/06/18 08:54:45;;;;;;;7.43;4.43;;;32.20;46.60;;;;;;4978951;28;20038;-71
2021/06/18 08:57:13;;;;;;;6.85;3.90;;;32.10;46.40;;;;;;4978546;28;20030;-70
2021/06/18 08:59:39;;;;;;;9.13;4.40;;;32.00;47.20;;;;;;4978413;28;20543;-71
2021/06/18 09:02:05;;;;;;;5.22;4.72;;;32.10;47.00;;;;;;4979587;28;20494;-72
2021/06/18 09:04:30;;;;;;;9.52;5.63;;;32.40;47.50;;;;;;4979598;28;20049;-72
2021/06/18 09:07:00;;;;;;;12.52;8.65;;;32.70;47.30;;;;;;4980585;28;20107;-72
2021/06/18 09:09:27;;;;;;;9.00;7.13;;;32.90;47.10;;;;;;4985533;28;20046;-72
2021/06/18 09:11:55;;;;;;;9.00;4.90;;;33.00;46.70;;;;;;4979042;28;20026;-72
2021/06/18 09:14:24;;;;;;;8.48;4.97;;;33.00;45.50;;;;;;4978815;28;20028;-72
2021/06/18 09:17:08;;;;;;;7.50;4.82;;;32.80;46.00;;;;;;4979346;28;20113;-72
2021/06/18 09:19:39;;;;;;;5.38;4.85;;;33.00;46.70;;;;;;4979222;28;20023;-72
2021/06/18 09:22:08;;;;;;;7.38;4.68;;;33.10;46.00;;;;;;4988884;28;20038;-72
2021/06/18 09:24:40;;;;;;;12.32;6.40;;;33.00;46.10;;;;;;4982223;28;20561;-72
2021/06/18 09:27:07;;;;;;;7.07;4.63;;;33.20;46.60;;;;;;4983517;28;20026;-71
2021/06/18 09:29:33;;;;;;;6.10;4.43;;;33.30;46.70;;;;;;4980679;28;20073;-72
2021/06/18 09:32:13;;;;;;;4.38;3.72;;;33.20;45.40;;;;;;4983847;28;20137;-70
2021/06/18 09:37:33;;;;;;;5.50;4.22;;;33.00;46.10;;;;;;4982822;28;20096;-70
2021/06/18 09:40:08;;;;;;;5.72;4.72;;;33.00;46.50;;;;;;4983386;28;20354;-72
2021/06/18 09:42:37;;;;;;;4.20;3.90;;;33.10;46.10;;;;;;4983400;28;20569;-72
2021/06/18 09:45:07;;;;;;;7.05;4.13;;;33.20;45.20;;;;;;4983523;28;20039;-72
2021/06/18 09:47:35;;;;;;;6.00;3.80;;;33.30;46.10;;;;;;4982387;28;20035;-73
2021/06/18 09:50:01;;;;;;;4.25;3.17;;;33.60;45.70;;;;;;4981014;28;20038;-72
2021/06/18 09:52:27;;;;;;;6.40;3.80;;;33.90;45.20;;;;;;4984065;28;20069;-72
2021/06/18 09:54:53;;;;;;;6.80;3.47;;;34.10;45.10;;;;;;4982739;28;20486;-71
2021/06/18 09:57:34;;;;;;;5.95;4.03;;;34.10;43.90;;;;;;4981057;28;20077;-71
2021/06/18 10:00:04;;;;;;;9.13;4.32;;;33.90;44.00;;;;;;4981496;28;20027;-71
2021/06/18 10:02:50;;;;;;;21.27;5.97;;;33.80;44.10;;;;;;4981879;28;20102;-71
2021/06/18 10:05:21;;;;;;;31.85;6.88;;;33.90;45.00;;;;;;4980815;28;20542;-73
2021/06/18 10:07:50;;;;;;;10.43;4.72;;;34.30;45.40;;;;;;4989149;28;20030;-73
2021/06/18 10:10:34;;;;;;;10.23;4.50;;;34.50;44.90;;;;;;4982333;28;20022;-71
2021/06/18 10:13:02;;;;;;;9.00;5.35;;;34.60;45.80;;;;;;4983001;28;20027;-72
2021/06/18 10:15:30;;;;;;;5.35;4.82;;;34.70;45.10;;;;;;4981993;28;20035;-72
2021/06/18 10:17:57;;;;;;;6.20;4.40;;;34.60;45.50;;;;;;4982483;28;20030;-72
2021/06/18 10:20:29;;;;;;;5.15;4.20;;;34.80;45.40;;;;;;4981431;28;20035;-72
2021/06/18 10:23:10;;;;;;;4.95;4.45;;;34.70;44.60;;;;;;4982860;28;20096;-73
2021/06/18 10:25:44;;;;;;;5.20;3.88;;;34.60;44.90;;;;;;4978928;28;20034;-72
2021/06/18 10:28:25;;;;;;;5.68;4.03;;;34.70;45.10;;;;;;4980441;28;20042;-70
2021/06/18 10:30:58;;;;;;;9.30;4.82;;;34.70;44.90;;;;;;4981769;28;20027;-73
2021/06/18 10:33:24;;;;;;;4.38;3.67;;;35.00;45.00;;;;;;4997671;28;20026;-73
2021/06/18 10:38:32;;;;;;;5.95;4.00;;;35.00;44.10;;;;;;4981600;28;20046;-72
2021/06/18 10:41:01;;;;;;;4.10;3.50;;;35.10;42.90;;;;;;4983122;28;20019;-72
2021/06/18 10:43:57;;;;;;;6.55;3.42;;;35.10;43.40;;;;;;4983367;28;20022;-72
2021/06/18 10:46:30;;;;;;;7.15;4.10;;;35.10;42.80;;;;;;4981810;28;20038;-73
2021/06/18 10:48:59;;;;;;;6.43;4.22;;;34.60;43.40;;;;;;4981511;28;20023;-73
2021/06/18 10:51:30;;;;;;;6.50;3.58;;;34.80;44.10;;;;;;4982914;28;20053;-73
2021/06/18 10:54:04;;;;;;;4.93;3.72;;;35.00;44.00;;;;;;4981276;28;20045;-73
2021/06/18 10:56:45;;;;;;;5.05;4.22;;;35.40;44.30;;;;;;4982111;28;20018;-73
2021/06/18 10:59:16;;;;;;;4.47;3.47;;;35.70;44.40;;;;;;4995997;28;20111;-73
2021/06/18 11:01:42;;;;;;;4.40;4.10;;;35.80;43.60;;;;;;4996907;28;20051;-72
2021/06/18 11:04:08;;;;;;;7.80;3.63;;;35.80;43.40;;;;;;4982094;28;20081;-71
2021/06/18 11:06:48;;;;;;;4.25;3.08;;;35.90;43.90;;;;;;4982112;28;20046;-72
2021/06/18 11:09:41;;;;;;;4.00;2.92;;;35.90;43.20;;;;;;4980032;28;20022;-72
2021/06/18 11:12:46;;;;;;;4.93;3.50;;;35.80;42.40;;;;;;4981988;28;20014;-72
2021/06/18 11:15:21;;;;;;;3.00;2.80;;;35.80;42.60;;;;;;4958676;28;20517;-72
2021/06/18 11:18:13;;;;;;;34.65;6.68;;;35.90;41.60;;;;;;4981435;28;20034;-72
2021/06/18 11:20:41;;;;;;;10.63;3.20;;;35.90;41.60;;;;;;4980709;28;20026;-72
2021/06/18 11:23:16;;;;;;;39.25;6.60;;;36.10;42.20;;;;;;4982206;28;20028;-71
2021/06/18 11:25:44;;;;;;;7.75;3.95;;;36.20;40.50;;;;;;4979876;28;20058;-71
2021/06/18 11:28:19;;;;;;;6.00;3.15;;;36.10;41.50;;;;;;4980329;28;20031;-71
2021/06/18 11:30:52;;;;;;;8.07;3.93;;;36.10;40.60;;;;;;4980934;28;20103;-73
2021/06/18 11:34:01;;;;;;;3.72;3.45;;;35.90;41.90;;;;;;4981711;28;20297;-72
2021/06/18 11:36:33;;;;;;;7.20;5.00;;;36.10;42.50;;;;;;4980346;28;20077;-71
2021/06/18 11:39:07;;;;;;;4.03;2.83;;;36.30;40.10;;;;;;4981337;28;20402;-72
2021/06/18 11:41:40;;;;;;;3.07;2.60;;;36.20;40.10;;;;;;4981355;28;20023;-73
2021/06/18 11:44:06;;;;;;;4.75;4.22;;;36.10;41.10;;;;;;4980253;28;20022;-73
2021/06/18 11:46:34;;;;;;;6.85;3.85;;;36.40;41.50;;;;;;4981037;28;20032;-73
2021/06/18 11:49:13;;;;;;;5.93;3.88;;;36.40;41.00;;;;;;4980536;28;20034;-73
2021/06/18 11:51:39;;;;;;;5.25;3.58;;;36.40;41.80;;;;;;4982988;28;20031;-71
2021/06/18 11:54:05;;;;;;;12.98;3.97;;;36.60;41.80;;;;;;4980731;28;20030;-72
2021/06/18 11:56:34;;;;;;;19.13;5.03;;;36.80;42.20;;;;;;4979373;28;20030;-72
2021/06/18 11:59:00;;;;;;;8.88;5.25;;;37.10;42.20;;;;;;4979532;28;20106;-72
2021/06/18 12:01:30;;;;;;;4.55;3.50;;;37.40;42.30;;;;;;4979166;28;20111;-71
2021/06/18 12:04:00;;;;;;;3.97;3.40;;;37.40;40.10;;;;;;4980274;28;20022;-72
2021/06/18 12:06:30;;;;;;;5.55;4.75;;;36.90;40.30;;;;;;4978032;28;20039;-71
2021/06/18 12:09:07;;;;;;;7.10;3.67;;;36.20;41.00;;;;;;4980511;28;20030;-72
2021/06/18 12:11:34;;;;;;;4.18;3.78;;;36.10;41.60;;;;;;4980089;28;20050;-72
2021/06/18 12:14:00;;;;;;;3.00;2.75;;;36.10;41.20;;;;;;4980531;28;20019;-69
2021/06/18 12:16:31;;;;;;;5.80;3.28;;;36.20;40.10;;;;;;4980790;28;20037;-72
2021/06/18 12:19:22;;;;;;;6.70;3.58;;;36.20;39.90;;;;;;4981356;28;20022;-74
2021/06/18 12:22:03;;;;;;;23.00;4.80;;;36.20;39.80;;;;;;4978932;28;20022;-72
2021/06/18 12:24:30;;;;;;;5.97;3.58;;;36.80;39.70;;;;;;4986622;28;20080;-71
2021/06/18 12:26:57;;;;;;;8.60;3.40;;;37.30;39.90;;;;;;4980099;28;20497;-72
2021/06/18 12:29:24;;;;;;;8.35;3.08;;;37.70;39.60;;;;;;4979932;28;20042;-73
2021/06/18 12:31:52;;;;;;;5.82;3.28;;;37.80;39.00;;;;;;4979886;28;20409;-72
2021/06/18 12:34:17;;;;;;;7.88;2.38;;;37.80;38.10;;;;;;4979699;28;20022;-70
2021/06/18 12:36:43;;;;;;;32.38;6.07;;;37.60;38.20;;;;;;4979189;28;20018;-72
2021/06/18 12:39:12;;;;;;;58.25;5.30;;;38.00;38.40;;;;;;4978261;28;20505;-70
2021/06/18 12:41:39;;;;;;;7.43;3.42;;;38.10;37.10;;;;;;4995295;28;20030;-72
2021/06/18 12:44:06;;;;;;;8.65;3.05;;;38.10;36.50;;;;;;4980802;28;20027;-72
2021/06/18 12:46:32;;;;;;;5.72;3.42;;;37.90;36.40;;;;;;4979013;28;20066;-72
2021/06/18 12:49:10;;;;;;;3.20;2.08;;;38.00;37.50;;;;;;4979730;28;20062;-74
2021/06/18 12:51:37;;;;;;;3.47;2.95;;;38.30;37.30;;;;;;4979618;28;20049;-72
2021/06/18 12:54:05;;;;;;;4.68;2.15;;;38.30;36.40;;;;;;4977637;28;20030;-74
2021/06/18 12:56:39;;;;;;;5.78;2.67;;;38.20;34.80;;;;;;4979880;28;20034;-73